createdAt,value
2022-10-18T00:02:56.749Z,13.39
2022-10-18T00:07:59.184Z,13.39
2022-10-18T00:13:01.394Z,13.45
2022-10-18T00:18:03.707Z,13.41
2022-10-18T00:23:05.909Z,13.36
2022-10-18T00:28:08.286Z,13.26
2022-10-18T00:33:10.479Z,13.31
2022-10-18T00:38:12.873Z,13.17
2022-10-18T00:43:17.926Z,13.21
2022-10-18T00:48:21.378Z,13.15
2022-10-18T00:53:24.189Z,13.30
2022-10-18T00:58:26.427Z,13.16
2022-10-18T01:03:28.817Z,13.21
2022-10-18T01:08:51.155Z,13.01
2022-10-18T01:14:08.456Z,13.02
2022-10-18T01:19:57.582Z,12.80
2022-10-18T01:25:21.529Z,12.83
2022-10-18T01:30:37.246Z,12.52
2022-10-18T01:35:45.044Z,12.64
2022-10-18T01:40:51.285Z,12.54
2022-10-18T01:45:56.168Z,12.47
2022-10-18T01:50:58.686Z,12.43
2022-10-18T01:56:27.066Z,12.11
2022-10-18T02:01:34.453Z,12.30
2022-10-18T02:06:42.810Z,12.32
2022-10-18T02:11:46.934Z,12.29
2022-10-18T02:16:57.212Z,12.18
2022-10-18T02:22:01.059Z,11.95
2022-10-18T02:27:03.689Z,12.20
2022-10-18T02:32:27.082Z,12.19
2022-10-18T02:37:35.638Z,12.10
2022-10-18T02:42:48.503Z,12.15
2022-10-18T02:47:50.646Z,12.06
2022-10-18T02:52:52.851Z,11.81
2022-10-18T02:57:55.159Z,11.95
2022-10-18T03:02:57.335Z,12.00
2022-10-18T03:07:59.725Z,11.97
2022-10-18T03:13:02.119Z,11.79
2022-10-18T03:18:04.723Z,12.05
2022-10-18T03:23:07.671Z,11.89
2022-10-18T03:28:10.071Z,11.94
2022-10-18T03:33:12.279Z,11.93
2022-10-18T03:38:14.461Z,12.10
2022-10-18T03:43:16.739Z,11.96
2022-10-18T03:48:18.886Z,12.14
2022-10-18T03:53:21.157Z,12.16
2022-10-18T03:58:24.147Z,12.14
2022-10-18T04:03:26.412Z,11.98
2022-10-18T04:08:28.576Z,12.08
2022-10-18T04:13:30.738Z,11.93
2022-10-18T04:18:33.139Z,11.98
2022-10-18T04:23:37.988Z,11.91
2022-10-18T04:28:41.310Z,11.94
2022-10-18T04:33:43.497Z,11.77
2022-10-18T04:38:45.655Z,11.65
2022-10-18T04:43:48.016Z,11.84
2022-10-18T04:48:50.354Z,11.70
2022-10-18T04:53:52.645Z,11.76
2022-10-18T04:58:54.873Z,11.58
2022-10-18T05:03:57.054Z,11.73
2022-10-18T05:08:59.229Z,11.58
2022-10-18T05:14:01.550Z,11.48
2022-10-18T05:19:06.060Z,11.80
2022-10-18T05:24:08.294Z,11.68
2022-10-18T05:29:10.845Z,11.69
2022-10-18T05:34:13.141Z,11.92
2022-10-18T05:39:15.528Z,12.06
2022-10-18T05:44:17.767Z,12.03
2022-10-18T05:49:20.226Z,12.11
2022-10-18T05:54:22.585Z,12.19
2022-10-18T05:59:25.121Z,12.32
2022-10-18T06:04:27.347Z,12.58
2022-10-18T06:09:31.234Z,12.66
2022-10-18T06:14:33.557Z,12.73
2022-10-18T06:19:35.758Z,12.78
2022-10-18T06:24:38.083Z,13.02
2022-10-18T06:29:41.235Z,13.10
2022-10-18T06:34:43.623Z,13.32
2022-10-18T06:39:45.818Z,13.65
2022-10-18T06:44:48.284Z,13.84
2022-10-18T06:49:50.730Z,14.06
2022-10-18T06:54:53.299Z,14.27
2022-10-18T06:59:55.508Z,14.39
2022-10-18T07:04:57.902Z,14.40
2022-10-18T07:10:00.095Z,14.71
2022-10-18T07:15:06.813Z,14.73
2022-10-18T07:20:11.425Z,14.84
2022-10-18T07:25:13.693Z,15.15
2022-10-18T07:30:16.113Z,15.25
2022-10-18T07:35:18.961Z,15.46
2022-10-18T07:40:21.294Z,15.66
2022-10-18T07:45:23.725Z,15.77
2022-10-18T07:50:25.871Z,15.83
2022-10-18T07:55:28.166Z,16.14
2022-10-18T08:00:30.464Z,16.17
2022-10-18T08:10:40.661Z,16.46
2022-10-18T08:15:43.074Z,16.60
2022-10-18T08:20:46.062Z,16.94
2022-10-18T08:25:48.709Z,17.16
2022-10-18T08:30:50.918Z,17.26
2022-10-18T08:35:57.512Z,17.35
2022-10-18T08:41:02.892Z,17.43
2022-10-18T08:46:05.499Z,17.85
2022-10-18T08:51:20.396Z,18.02
2022-10-18T08:56:24.956Z,18.05
2022-10-18T09:01:57.515Z,18.36
2022-10-18T09:07:24.552Z,18.45
2022-10-18T09:13:07.539Z,18.64
2022-10-18T09:18:20.146Z,18.56
2022-10-18T09:23:23.506Z,18.83
2022-10-18T09:28:53.854Z,18.85
2022-10-18T09:34:12.199Z,18.80
2022-10-18T09:39:23.216Z,19.14
2022-10-18T09:44:30.911Z,19.31
2022-10-18T09:49:57.161Z,19.46
2022-10-18T09:55:09.809Z,19.63
2022-10-18T10:00:21.617Z,19.69
2022-10-18T10:05:23.926Z,19.77
2022-10-18T10:10:28.240Z,19.83
2022-10-18T10:15:35.277Z,20.06
2022-10-18T10:20:47.515Z,20.24
2022-10-18T10:25:52.334Z,20.27
2022-10-18T10:30:54.834Z,20.25
2022-10-18T10:36:02.021Z,20.36
2022-10-18T10:41:04.327Z,20.25
2022-10-18T10:46:16.100Z,20.43
2022-10-18T10:51:39.920Z,20.47
2022-10-18T10:57:01.764Z,20.63
2022-10-18T11:02:32.164Z,20.83
2022-10-18T11:07:36.853Z,20.96
2022-10-18T11:12:44.131Z,21.16
2022-10-18T11:18:01.059Z,21.23
2022-10-18T11:23:07.919Z,21.41
2022-10-18T11:28:10.862Z,21.50
2022-10-18T11:33:29.530Z,21.46
2022-10-18T11:38:46.578Z,21.63
2022-10-18T11:44:02.091Z,21.74
2022-10-18T11:49:35.587Z,21.75
2022-10-18T11:54:49.755Z,21.96
2022-10-18T12:00:03.810Z,22.07
2022-10-18T12:05:24.219Z,22.02
2022-10-18T12:10:45.704Z,22.13
2022-10-18T12:15:54.170Z,22.02
2022-10-18T12:20:58.700Z,21.97
2022-10-18T12:26:07.390Z,22.04
2022-10-18T12:31:35.459Z,22.00
2022-10-18T12:37:11.385Z,22.04
2022-10-18T12:42:25.742Z,21.98
2022-10-18T12:47:30.489Z,22.16
2022-10-18T12:52:37.553Z,22.10
2022-10-18T12:58:04.107Z,22.52
2022-10-18T13:03:18.374Z,22.73
2022-10-18T13:08:34.379Z,22.98
2022-10-18T13:14:20.718Z,23.21
2022-10-18T13:19:34.855Z,23.39
2022-10-18T13:25:19.524Z,23.31
2022-10-18T13:30:33.931Z,23.58
2022-10-18T13:35:57.662Z,23.65
2022-10-18T13:41:21.837Z,23.70
2022-10-18T13:46:33.099Z,23.65
2022-10-18T13:51:53.531Z,23.71
2022-10-18T13:57:37.153Z,23.60
2022-10-18T14:02:51.752Z,23.78
2022-10-18T14:08:10.691Z,23.96
2022-10-18T14:13:22.173Z,24.10
2022-10-18T14:18:35.243Z,24.24
2022-10-18T14:23:43.819Z,24.51
2022-10-18T14:29:01.962Z,24.47
2022-10-18T14:34:04.471Z,24.70
2022-10-18T14:39:08.539Z,24.73
2022-10-18T14:44:19.965Z,24.57
2022-10-18T14:49:22.831Z,24.50
2022-10-18T14:54:34.119Z,24.32
2022-10-18T14:59:52.110Z,24.37
2022-10-18T15:05:05.306Z,24.09
2022-10-18T15:10:15.181Z,23.63
2022-10-18T15:15:24.559Z,23.12
2022-10-18T15:20:32.011Z,22.70
2022-10-18T15:25:36.260Z,22.39
2022-10-18T15:30:44.146Z,22.01
2022-10-18T15:35:46.562Z,21.64
2022-10-18T15:40:48.789Z,21.45
2022-10-18T15:45:53.826Z,21.27
2022-10-18T15:50:57.837Z,21.06
2022-10-18T15:56:35.003Z,20.73
2022-10-18T16:01:43.202Z,20.45
2022-10-18T16:06:45.413Z,20.23
2022-10-18T16:11:54.281Z,20.05
2022-10-18T16:17:05.042Z,19.80
2022-10-18T16:22:07.584Z,19.67
2022-10-18T16:27:10.829Z,19.59
2022-10-18T16:32:13.014Z,19.33
2022-10-18T16:37:15.520Z,19.11
2022-10-18T16:42:17.655Z,19.17
2022-10-18T16:47:20.001Z,18.88
2022-10-18T16:52:22.446Z,18.78
2022-10-18T16:57:24.659Z,18.78
2022-10-18T17:02:26.825Z,18.59
2022-10-18T17:07:29.007Z,18.55
2022-10-18T17:12:31.406Z,18.34
2022-10-18T17:17:34.181Z,18.33
2022-10-18T17:22:36.819Z,18.24
2022-10-18T17:27:39.184Z,17.93
2022-10-18T17:32:45.085Z,17.98
2022-10-18T17:37:52.892Z,17.90
2022-10-18T17:42:55.404Z,17.67
2022-10-18T17:47:57.687Z,17.67
2022-10-18T17:53:00.060Z,17.64
2022-10-18T17:58:02.666Z,17.56
2022-10-18T18:03:05.115Z,17.60
2022-10-18T18:08:07.494Z,17.42
2022-10-18T18:13:09.699Z,17.39
2022-10-18T18:18:11.903Z,17.31
2022-10-18T18:23:14.287Z,17.09
2022-10-18T18:28:16.638Z,17.10
2022-10-18T18:33:18.889Z,17.02
2022-10-18T18:38:21.074Z,16.84
2022-10-18T18:43:23.622Z,16.66
2022-10-18T18:48:27.599Z,16.55
2022-10-18T18:53:30.344Z,16.61
2022-10-18T18:58:33.038Z,16.43
2022-10-18T19:03:36.076Z,16.33
2022-10-18T19:08:40.453Z,16.37
2022-10-18T19:13:43.280Z,16.27
2022-10-18T19:18:58.177Z,16.26
2022-10-18T19:24:01.165Z,16.17
2022-10-18T19:29:13.115Z,15.98
2022-10-18T19:34:16.956Z,15.92
2022-10-18T19:39:24.730Z,15.70
2022-10-18T19:44:30.758Z,15.70
2022-10-18T19:49:33.266Z,15.60
2022-10-18T19:54:35.838Z,15.68
2022-10-18T19:59:38.362Z,15.47
2022-10-18T20:04:40.736Z,15.66
2022-10-18T20:09:42.945Z,15.59
2022-10-18T20:14:45.431Z,15.38
2022-10-18T20:19:49.232Z,15.59
2022-10-18T20:24:52.183Z,15.38
2022-10-18T20:29:54.498Z,15.32
2022-10-18T20:34:56.850Z,15.22
2022-10-18T20:40:00.556Z,15.03
2022-10-18T20:50:06.524Z,14.80
2022-10-18T20:55:08.899Z,14.87
2022-10-18T21:00:12.241Z,14.74
2022-10-18T21:05:16.945Z,14.62
2022-10-18T21:10:19.219Z,14.70
2022-10-18T21:15:21.806Z,14.62
2022-10-18T21:20:23.994Z,14.55
2022-10-18T21:25:26.228Z,14.54
2022-10-18T21:30:28.783Z,14.44
2022-10-18T21:35:36.948Z,14.23
2022-10-18T21:40:44.974Z,14.13
2022-10-18T21:45:47.221Z,14.01
2022-10-18T21:50:49.433Z,14.13
2022-10-18T21:55:51.918Z,13.98
2022-10-18T22:00:54.288Z,13.96
2022-10-18T22:06:13.770Z,14.02
2022-10-18T22:11:17.115Z,13.65
2022-10-18T22:16:19.815Z,13.69
2022-10-18T22:21:22.313Z,13.47
2022-10-18T22:26:28.718Z,13.67
2022-10-18T22:31:33.643Z,13.63
2022-10-18T22:36:36.049Z,13.42
2022-10-18T22:41:38.349Z,13.41
2022-10-18T22:46:42.059Z,13.35
2022-10-18T22:51:44.369Z,13.17
2022-10-18T22:56:46.579Z,12.98
2022-10-18T23:01:48.790Z,13.01
2022-10-18T23:06:51.145Z,13.06
2022-10-18T23:11:53.430Z,13.07
2022-10-18T23:16:55.637Z,13.17
2022-10-18T23:21:57.812Z,13.13
2022-10-18T23:27:00.152Z,13.08
2022-10-18T23:32:02.401Z,13.04
2022-10-18T23:37:04.580Z,12.95
2022-10-18T23:42:06.779Z,12.68
2022-10-18T23:47:09.201Z,12.72
2022-10-18T23:52:11.407Z,12.74
2022-10-18T23:57:13.798Z,12.78
